createdAt,value
2019-01-31T00:05:57.944Z,53
2019-01-31T00:16:01.623Z,53
2019-01-31T00:26:05.299Z,53
2019-01-31T00:36:08.976Z,52
2019-01-31T00:46:12.640Z,53
2019-01-31T00:56:16.302Z,53
2019-01-31T01:06:19.987Z,52
2019-01-31T01:16:23.661Z,52
2019-01-31T01:26:27.355Z,52
2019-01-31T01:36:31.022Z,52
2019-01-31T01:46:34.709Z,52
2019-01-31T01:56:38.380Z,51
2019-01-31T02:06:42.035Z,51
2019-01-31T02:16:45.709Z,51
2019-01-31T02:26:49.368Z,51
2019-01-31T02:36:53.024Z,50
2019-01-31T02:46:56.714Z,50
2019-01-31T02:57:00.383Z,50
2019-01-31T03:07:04.036Z,50
2019-01-31T03:17:07.703Z,49
2019-01-31T03:27:11.365Z,49
2019-01-31T03:37:15.050Z,49
2019-01-31T03:47:18.733Z,49
2019-01-31T03:57:22.412Z,49
2019-01-31T04:07:26.067Z,50
2019-01-31T04:17:29.732Z,49
2019-01-31T04:27:33.423Z,49
2019-01-31T04:37:37.213Z,48
2019-01-31T04:47:40.897Z,49
2019-01-31T04:57:44.620Z,49
2019-01-31T05:07:48.308Z,50
2019-01-31T05:17:51.977Z,49
2019-01-31T05:27:55.639Z,50
2019-01-31T05:37:59.318Z,50
2019-01-31T05:48:02.969Z,50
2019-01-31T05:58:06.617Z,50
2019-01-31T06:08:10.258Z,51
2019-01-31T06:18:13.914Z,51
2019-01-31T06:28:17.619Z,38
2019-01-31T06:38:21.293Z,46
2019-01-31T06:48:24.961Z,50
2019-01-31T06:58:28.746Z,50
2019-01-31T07:08:32.375Z,50
2019-01-31T07:18:36.041Z,50
2019-01-31T07:28:39.715Z,50
2019-01-31T07:38:43.384Z,50
2019-01-31T07:48:47.119Z,51
2019-01-31T07:58:50.864Z,51
2019-01-31T08:08:54.518Z,52
2019-01-31T08:18:58.184Z,53
2019-01-31T08:29:01.859Z,56
2019-01-31T08:39:05.575Z,52
2019-01-31T08:49:09.261Z,56
2019-01-31T08:59:12.947Z,60
2019-01-31T09:09:16.608Z,61
2019-01-31T09:19:20.268Z,61
2019-01-31T09:29:23.944Z,62
2019-01-31T09:39:27.620Z,63
2019-01-31T09:49:31.304Z,64
2019-01-31T09:59:35.057Z,66
2019-01-31T10:09:38.759Z,67
2019-01-31T10:19:42.897Z,67
2019-01-31T10:29:46.625Z,69
2019-01-31T10:39:50.382Z,68
2019-01-31T10:49:54.064Z,69
2019-01-31T10:59:57.853Z,69
2019-01-31T11:10:01.565Z,70
2019-01-31T11:20:05.243Z,69
2019-01-31T11:30:09.895Z,70
2019-01-31T11:40:13.556Z,71
2019-01-31T11:50:17.231Z,71
2019-01-31T12:00:20.909Z,73
2019-01-31T12:10:24.580Z,74
2019-01-31T12:20:28.235Z,74
2019-01-31T12:30:31.918Z,73
2019-01-31T12:40:35.598Z,74
2019-01-31T12:50:39.376Z,73
2019-01-31T13:00:43.091Z,73
2019-01-31T13:10:46.744Z,73
2019-01-31T13:20:50.411Z,72
2019-01-31T13:30:54.088Z,71
2019-01-31T13:40:57.759Z,71
2019-01-31T13:51:01.437Z,65
2019-01-31T14:01:05.115Z,58
2019-01-31T14:11:08.768Z,60
2019-01-31T14:21:12.433Z,62
2019-01-31T14:31:16.122Z,65
2019-01-31T14:41:19.759Z,67
2019-01-31T14:51:23.420Z,67
2019-01-31T15:01:27.188Z,68
2019-01-31T15:11:30.869Z,70
2019-01-31T15:21:34.530Z,72
2019-01-31T15:31:38.221Z,72
2019-01-31T15:41:41.915Z,72
2019-01-31T15:51:45.599Z,71
2019-01-31T16:01:49.263Z,72
2019-01-31T16:11:53.030Z,71
2019-01-31T16:21:56.692Z,69
2019-01-31T16:32:00.369Z,67
2019-01-31T16:42:04.046Z,66
2019-01-31T16:52:07.734Z,65
2019-01-31T17:02:11.418Z,67
2019-01-31T17:12:15.098Z,72
2019-01-31T17:22:18.752Z,88
2019-01-31T17:32:22.427Z,87
2019-01-31T17:42:26.112Z,85
2019-01-31T17:52:29.786Z,81
2019-01-31T18:02:45.924Z,78
2019-01-31T18:12:49.603Z,76
2019-01-31T18:22:53.305Z,75
2019-01-31T18:32:56.969Z,73
2019-01-31T18:43:00.635Z,72
2019-01-31T18:53:04.352Z,70
2019-01-31T19:03:08.024Z,69
2019-01-31T19:13:11.698Z,67
2019-01-31T19:23:15.373Z,66
2019-01-31T19:33:19.055Z,66
2019-01-31T19:43:22.829Z,65
2019-01-31T19:53:26.508Z,63
2019-01-31T20:03:30.196Z,63
2019-01-31T20:13:33.868Z,62
2019-01-31T20:23:37.540Z,62
2019-01-31T20:33:41.214Z,61
2019-01-31T20:43:44.895Z,61
2019-01-31T20:53:48.594Z,60
2019-01-31T21:03:52.270Z,60
2019-01-31T21:13:55.987Z,60
2019-01-31T21:23:59.681Z,59
2019-01-31T21:34:03.358Z,60
2019-01-31T21:44:07.036Z,59
2019-01-31T21:54:10.704Z,58
2019-01-31T22:04:14.389Z,58
2019-01-31T22:14:18.075Z,57
2019-01-31T22:24:21.743Z,56
2019-01-31T22:34:25.419Z,56
2019-01-31T22:44:29.103Z,56
2019-01-31T22:54:32.784Z,55
2019-01-31T23:04:36.493Z,55
2019-01-31T23:14:40.253Z,54
2019-01-31T23:24:43.894Z,55
2019-01-31T23:34:47.556Z,55
2019-01-31T23:44:51.296Z,54
2019-01-31T23:54:54.954Z,54
